Terminal Aerodrome Forecast
Issued by NWS

Home | Current Version | Previous Version | Text Only | Print | Product List | Glossary On
Versions: 1 2 3 4 5 6 7 8 9 10 11 12 13 14 15 16 17 18 19 20 21 22 23 24 25 26 27 28 29 30
000
FTUS43 KGLD 051141
TAFMCK
TAF
KMCK 051141Z 0512/0612 18012KT P6SM FEW120 BKN250
     FM051800 18017G25KT P6SM FEW250
     FM060200 20016KT P6SM VCTS SCT080CB BKN250
     FM060400 25014KT 6SM -TSRA BKN060CB
     FM060800 34015G23KT P6SM BKN025=

USA.gov is the U.S. government's official web portal to all federal, state and local government web resources and services.